Coleharbor, North Dakota
Current Conditions -  °F | °C
As of 9:35 AM on Friday 24 Oct 2014 (Local Time) from KHZE Reporting Station
Broken Clouds Broken Clouds  
Wind Chill: 37°   Ceiling: 11000
Heat Index: 41°   Visibility: 10mi
Dew Point: 36°   Wind: 6mph
Humidity: 81%   Direction: 250°WSW
Pressure: 29.87"   Gusts: NA
Location:  47.54°N, 101.22°W
Report Text: KHZE 241435Z AUTO 25005KT 10SM BKN110 05/02 A2987 RMK AO2
Loading
Personal Weather Stations






























Interactive Weather Map
Tropical Storm Tracking
New forecast layout! Learn more

10-Day Weather Forecast

Advertisements
Track Severe Weather on mobile